Terminal Aerodrome Forecast
Issued by NWS

Home | Current Version | Previous Version | Text Only | Print | Product List | Glossary On
Versions: 1 2 3 4 5 6 7 8 9 10
000
FTUS46 KSGX 271137
TAFONT
TAF
KONT 271137Z 2712/2818 VRB05KT P6SM SCT250
     FM271400 VRB05KT 5SM BR BKN010
     FM271800 VRB05KT 5SM BR HZ SCT015 SCT250
     FM272100 25010KT P6SM FEW020 SCT110 SCT250
     FM280200 30010G15KT P6SM BKN020 BKN050 OVC250=

USA.gov is the U.S. government's official web portal to all federal, state and local government web resources and services.